Aérodrome :
LOGIN :

S'inscrire | Disclaimer

   EN    FR    IT 

 










Légende :    VFR   VFR Marginal   IFR   IFR Intensif   IFR Très Intensif
Visi : 
Plafond : 
>= 8 km
>= 3000ft
5 à 8 km
1000 à 3000 ft
1500m à 5 km
500 à 1000 ft
800 à 1500m
200 à 500 ft
< 800m
< 200 ft
Symboles :   Orages  Brouillard  Fortes neiges  Fortes précipitations  Vent > 20 kt
SIGMETs :   Divers  Orages  Givrage  Turbulence  Onde Orograph.  Cendres Volcan.






- Altitude de l'aérodrome : 306 ft
- Code IATA : EMA


EGNX - Nottingham East Midlands

DERNIER METAR :
  • 210620Z 08007KT 9999 BKN014 02/02 Q1006

METARs EXPIRÉS :
  • 210550Z 08006KT 9999 BKN013 02/01 Q1006
  • 210520Z 08006KT 9000 BKN013 02/01 Q1006
  • 210450Z 05006KT 7000 BKN013 01/01 Q1006
  • 210420Z 05005KT 8000 BKN014 01/01 Q1006
  • 210350Z VRB03KT 9000 BKN014 01/00 Q1007

TAF TAF EGNX
Valide du 21 à 06h jusqu'au 22 à 06h UTC


210504Z 2106/2206 09007KT 9999 BKN015
TEMPO 2106/2115 9000 BKN012
PROB30
TEMPO 2106/2116 BKN009
BECMG 2116/2119 7000 BKN012
PROB40 2116/2201 4000 BR BKN003
TEMPO 2201/2206 RA BKN005
ATIS : +44 1332 852 852 (ext 3201)



MET'MAP, la Météo Aéronautique d'un coup d'oeil ! - Copyright ORBIFLY Décembre 2007 - Disclaimer

ORBIFLY MET'MAP TEAM :

Programmation & Développement : Alexandra Zaïnal
Conception & Développement : Baudouin d'Aumeries
Co-Programmation & Développement : Marc-Olivier Méhu
Soutien technique & logistique : Manuel Goepfert

Contact : metmap@orbifly.com




SOURCES & CREDITS :

   NOAA